sensor_id;sensor_type;location;lat;lon;timestamp;pressure;altitude;pressure_sealevel;temperature;humidity
29839;BME280;18669;53.356;-1.464;2023-04-08T00:02:14;101427.66;;;6.81;100.00
29839;BME280;18669;53.356;-1.464;2023-04-08T00:04:59;101418.91;;;6.74;100.00
29839;BME280;18669;53.356;-1.464;2023-04-08T00:07:44;101424.22;;;6.83;100.00
29839;BME280;18669;53.356;-1.464;2023-04-08T00:10:29;101417.28;;;6.89;100.00
29839;BME280;18669;53.356;-1.464;2023-04-08T00:13:14;101414.75;;;7.03;100.00
29839;BME280;18669;53.356;-1.464;2023-04-08T00:15:59;101423.44;;;6.98;100.00
29839;BME280;18669;53.356;-1.464;2023-04-08T00:18:43;101426.13;;;7.05;100.00
29839;BME280;18669;53.356;-1.464;2023-04-08T00:21:28;101421.78;;;7.13;100.00
29839;BME280;18669;53.356;-1.464;2023-04-08T00:24:14;101428.84;;;7.23;100.00
29839;BME280;18669;53.356;-1.464;2023-04-08T00:27:00;101429.75;;;7.31;100.00
29839;BME280;18669;53.356;-1.464;2023-04-08T00:29:46;101428.06;;;7.37;100.00
29839;BME280;18669;53.356;-1.464;2023-04-08T00:32:30;101427.22;;;7.41;100.00
29839;BME280;18669;53.356;-1.464;2023-04-08T00:35:16;101420.22;;;7.40;100.00
29839;BME280;18669;53.356;-1.464;2023-04-08T00:38:01;101421.09;;;7.39;100.00
29839;BME280;18669;53.356;-1.464;2023-04-08T00:40:46;101425.38;;;7.30;100.00
29839;BME280;18669;53.356;-1.464;2023-04-08T00:43:31;101424.56;;;7.44;100.00
29839;BME280;18669;53.356;-1.464;2023-04-08T00:46:16;101422.03;;;7.56;100.00
29839;BME280;18669;53.356;-1.464;2023-04-08T00:49:01;101420.31;;;7.61;100.00
29839;BME280;18669;53.356;-1.464;2023-04-08T00:51:46;101426.44;;;7.68;100.00
29839;BME280;18669;53.356;-1.464;2023-04-08T00:54:31;101417.72;;;7.65;100.00
29839;BME280;18669;53.356;-1.464;2023-04-08T00:57:16;101424.69;;;7.66;100.00
29839;BME280;18669;53.356;-1.464;2023-04-08T01:00:03;101422.09;;;7.72;100.00
29839;BME280;18669;53.356;-1.464;2023-04-08T01:03:22;101423.88;;;7.76;100.00
29839;BME280;18669;53.356;-1.464;2023-04-08T01:09:04;101421.25;;;7.85;100.00
29839;BME280;18669;53.356;-1.464;2023-04-08T01:11:50;101430.00;;;7.84;100.00
29839;BME280;18669;53.356;-1.464;2023-04-08T01:14:39;101428.25;;;7.85;100.00
29839;BME280;18669;53.356;-1.464;2023-04-08T01:17:26;101428.22;;;7.72;100.00
29839;BME280;18669;53.356;-1.464;2023-04-08T01:20:12;101425.63;;;7.83;100.00
29839;BME280;18669;53.356;-1.464;2023-04-08T01:25:55;101431.72;;;7.73;100.00
29839;BME280;18669;53.356;-1.464;2023-04-08T01:28:40;101436.06;;;7.68;100.00
29839;BME280;18669;53.356;-1.464;2023-04-08T01:31:27;101428.19;;;7.68;100.00
29839;BME280;18669;53.356;-1.464;2023-04-08T01:34:14;101431.66;;;7.62;100.00
29839;BME280;18669;53.356;-1.464;2023-04-08T01:37:01;101425.56;;;7.68;100.00
29839;BME280;18669;53.356;-1.464;2023-04-08T01:39:47;101429.94;;;7.69;100.00
29839;BME280;18669;53.356;-1.464;2023-04-08T01:42:34;101425.50;;;7.55;100.00
29839;BME280;18669;53.356;-1.464;2023-04-08T01:45:21;101422.03;;;7.55;100.00
29839;BME280;18669;53.356;-1.464;2023-04-08T01:48:07;101437.69;;;7.50;100.00
29839;BME280;18669;53.356;-1.464;2023-04-08T01:50:53;101439.50;;;7.56;100.00
29839;BME280;18669;53.356;-1.464;2023-04-08T01:53:39;101442.94;;;7.45;100.00
29839;BME280;18669;53.356;-1.464;2023-04-08T01:56:26;101440.31;;;7.45;100.00
29839;BME280;18669;53.356;-1.464;2023-04-08T01:59:14;101442.88;;;7.38;100.00
29839;BME280;18669;53.356;-1.464;2023-04-08T02:02:01;101442.78;;;7.21;100.00
29839;BME280;18669;53.356;-1.464;2023-04-08T02:04:48;101440.88;;;6.96;100.00
29839;BME280;18669;53.356;-1.464;2023-04-08T02:07:33;101446.03;;;6.87;100.00
29839;BME280;18669;53.356;-1.464;2023-04-08T02:10:18;101440.69;;;6.73;100.00
29839;BME280;18669;53.356;-1.464;2023-04-08T02:13:03;101449.38;;;6.69;100.00
29839;BME280;18669;53.356;-1.464;2023-04-08T02:15:51;101442.44;;;6.74;100.00
29839;BME280;18669;53.356;-1.464;2023-04-08T02:18:42;101442.41;;;6.69;100.00
29839;BME280;18669;53.356;-1.464;2023-04-08T02:21:33;101445.81;;;6.64;100.00
29839;BME280;18669;53.356;-1.464;2023-04-08T02:24:21;101448.22;;;6.40;100.00
29839;BME280;18669;53.356;-1.464;2023-04-08T02:27:07;101438.59;;;6.36;100.00
29839;BME280;18669;53.356;-1.464;2023-04-08T02:29:54;101431.50;;;6.23;100.00
29839;BME280;18669;53.356;-1.464;2023-04-08T02:32:41;101441.97;;;6.23;100.00
29839;BME280;18669;53.356;-1.464;2023-04-08T02:35:27;101444.47;;;6.14;100.00
29839;BME280;18669;53.356;-1.464;2023-04-08T02:38:12;101452.13;;;5.98;100.00
29839;BME280;18669;53.356;-1.464;2023-04-08T02:40:57;101451.97;;;5.87;100.00
29839;BME280;18669;53.356;-1.464;2023-04-08T02:43:42;101449.34;;;5.87;100.00
29839;BME280;18669;53.356;-1.464;2023-04-08T02:46:27;101450.97;;;5.76;100.00
29839;BME280;18669;53.356;-1.464;2023-04-08T02:49:12;101453.59;;;5.77;100.00
29839;BME280;18669;53.356;-1.464;2023-04-08T02:51:57;101454.38;;;5.70;100.00
29839;BME280;18669;53.356;-1.464;2023-04-08T02:54:42;101461.38;;;5.74;100.00
29839;BME280;18669;53.356;-1.464;2023-04-08T02:57:26;101458.78;;;5.74;100.00
29839;BME280;18669;53.356;-1.464;2023-04-08T03:00:12;101461.34;;;5.71;100.00
29839;BME280;18669;53.356;-1.464;2023-04-08T03:02:57;101456.88;;;5.61;100.00
29839;BME280;18669;53.356;-1.464;2023-04-08T03:05:42;101458.50;;;5.54;100.00
29839;BME280;18669;53.356;-1.464;2023-04-08T03:08:27;101464.44;;;5.41;100.00
29839;BME280;18669;53.356;-1.464;2023-04-08T03:11:12;101462.47;;;5.27;100.00
29839;BME280;18669;53.356;-1.464;2023-04-08T03:13:56;101466.91;;;5.31;100.00
29839;BME280;18669;53.356;-1.464;2023-04-08T03:16:41;101467.03;;;5.41;100.00
29839;BME280;18669;53.356;-1.464;2023-04-08T03:19:26;101473.22;;;5.47;100.00
29839;BME280;18669;53.356;-1.464;2023-04-08T03:22:12;101464.47;;;5.44;100.00
29839;BME280;18669;53.356;-1.464;2023-04-08T03:24:57;101471.44;;;5.45;100.00
29839;BME280;18669;53.356;-1.464;2023-04-08T03:27:42;101471.28;;;5.34;100.00
29839;BME280;18669;53.356;-1.464;2023-04-08T03:30:27;101482.50;;;5.27;100.00
29839;BME280;18669;53.356;-1.464;2023-04-08T03:33:12;101483.25;;;5.19;100.00
29839;BME280;18669;53.356;-1.464;2023-04-08T03:35:57;101483.09;;;5.10;100.00
29839;BME280;18669;53.356;-1.464;2023-04-08T03:38:43;101479.78;;;5.22;100.00
29839;BME280;18669;53.356;-1.464;2023-04-08T03:41:28;101488.25;;;5.07;100.00
29839;BME280;18669;53.356;-1.464;2023-04-08T03:44:14;101492.63;;;5.06;100.00
29839;BME280;18669;53.356;-1.464;2023-04-08T03:46:59;101488.25;;;5.07;100.00
29839;BME280;18669;53.356;-1.464;2023-04-08T03:49:44;101488.94;;;4.95;100.00
29839;BME280;18669;53.356;-1.464;2023-04-08T03:52:29;101490.41;;;4.79;100.00
29839;BME280;18669;53.356;-1.464;2023-04-08T03:55:14;101492.06;;;4.74;100.00
29839;BME280;18669;53.356;-1.464;2023-04-08T03:57:58;101483.22;;;4.64;100.00
29839;BME280;18669;53.356;-1.464;2023-04-08T04:00:43;101501.47;;;4.66;100.00
29839;BME280;18669;53.356;-1.464;2023-04-08T04:03:28;101492.66;;;4.57;100.00
29839;BME280;18669;53.356;-1.464;2023-04-08T04:06:13;101492.66;;;4.57;100.00
29839;BME280;18669;53.356;-1.464;2023-04-08T04:08:58;101489.09;;;4.52;100.00
29839;BME280;18669;53.356;-1.464;2023-04-08T04:11:43;101496.00;;;4.50;100.00
29839;BME280;18669;53.356;-1.464;2023-04-08T04:14:28;101495.81;;;4.39;100.00
29839;BME280;18669;53.356;-1.464;2023-04-08T04:17:12;101493.81;;;4.27;100.00
29839;BME280;18669;53.356;-1.464;2023-04-08T04:19:57;101493.91;;;4.32;100.00
29839;BME280;18669;53.356;-1.464;2023-04-08T04:22:42;101499.19;;;4.35;100.00
29839;BME280;18669;53.356;-1.464;2023-04-08T04:25:27;101499.09;;;4.30;100.00
29839;BME280;18669;53.356;-1.464;2023-04-08T04:28:12;101502.41;;;4.22;100.00
29839;BME280;18669;53.356;-1.464;2023-04-08T04:30:57;101490.88;;;4.09;100.00
29839;BME280;18669;53.356;-1.464;2023-04-08T04:33:42;101496.19;;;4.15;100.00
29839;BME280;18669;53.356;-1.464;2023-04-08T04:36:27;101501.22;;;4.07;100.00
29839;BME280;18669;53.356;-1.464;2023-04-08T04:39:11;101495.94;;;4.01;100.00
29839;BME280;18669;53.356;-1.464;2023-04-08T04:41:56;101490.66;;;3.99;100.00
29839;BME280;18669;53.356;-1.464;2023-04-08T04:44:41;101500.38;;;4.07;100.00
29839;BME280;18669;53.356;-1.464;2023-04-08T04:47:26;101510.72;;;4.03;100.00
29839;BME280;18669;53.356;-1.464;2023-04-08T04:50:11;101507.06;;;3.95;100.00
29839;BME280;18669;53.356;-1.464;2023-04-08T04:52:56;101510.44;;;3.90;100.00
29839;BME280;18669;53.356;-1.464;2023-04-08T04:55:41;101506.09;;;3.90;100.00
29839;BME280;18669;53.356;-1.464;2023-04-08T04:58:25;101518.31;;;3.94;100.00
29839;BME280;18669;53.356;-1.464;2023-04-08T05:01:10;101511.28;;;3.90;100.00
29839;BME280;18669;53.356;-1.464;2023-04-08T05:03:55;101519.09;;;3.90;100.00
29839;BME280;18669;53.356;-1.464;2023-04-08T05:06:40;101523.59;;;3.96;100.00
29839;BME280;18669;53.356;-1.464;2023-04-08T05:09:25;101521.06;;;3.99;100.00
29839;BME280;18669;53.356;-1.464;2023-04-08T05:12:09;101517.31;;;3.86;100.00
29839;BME280;18669;53.356;-1.464;2023-04-08T05:14:57;101517.47;;;3.94;100.00
29839;BME280;18669;53.356;-1.464;2023-04-08T05:17:42;101526.81;;;3.85;100.00
29839;BME280;18669;53.356;-1.464;2023-04-08T05:20:27;101526.75;;;3.81;100.00
29839;BME280;18669;53.356;-1.464;2023-04-08T05:23:12;101525.78;;;3.77;100.00
29839;BME280;18669;53.356;-1.464;2023-04-08T05:29:36;101534.19;;;3.64;100.00
29839;BME280;18669;53.356;-1.464;2023-04-08T05:32:21;101542.00;;;3.65;100.00
29839;BME280;18669;53.356;-1.464;2023-04-08T05:35:06;101536.66;;;3.59;100.00
29839;BME280;18669;53.356;-1.464;2023-04-08T05:37:51;101543.47;;;3.54;100.00
29839;BME280;18669;53.356;-1.464;2023-04-08T05:40:36;101551.41;;;3.58;100.00
29839;BME280;18669;53.356;-1.464;2023-04-08T05:43:21;101554.84;;;3.57;100.00
29839;BME280;18669;53.356;-1.464;2023-04-08T05:46:07;101561.91;;;3.63;100.00
29839;BME280;18669;53.356;-1.464;2023-04-08T05:48:52;101553.03;;;3.55;100.00
29839;BME280;18669;53.356;-1.464;2023-04-08T05:51:38;101553.31;;;3.66;100.00
29839;BME280;18669;53.356;-1.464;2023-04-08T05:54:23;101559.31;;;3.63;100.00
29839;BME280;18669;53.356;-1.464;2023-04-08T05:57:07;101557.63;;;3.65;100.00
29839;BME280;18669;53.356;-1.464;2023-04-08T05:59:52;101561.03;;;3.63;100.00
29839;BME280;18669;53.356;-1.464;2023-04-08T06:02:37;101559.03;;;3.51;100.00
29839;BME280;18669;53.356;-1.464;2023-04-08T06:05:22;101572.97;;;3.53;100.00
29839;BME280;18669;53.356;-1.464;2023-04-08T06:08:07;101566.25;;;3.63;100.00
29839;BME280;18669;53.356;-1.464;2023-04-08T06:10:52;101581.94;;;3.67;100.00
29839;BME280;18669;53.356;-1.464;2023-04-08T06:13:37;101579.44;;;3.70;100.00
29839;BME280;18669;53.356;-1.464;2023-04-08T06:16:22;101576.00;;;3.73;100.00
29839;BME280;18669;53.356;-1.464;2023-04-08T06:19:06;101572.44;;;3.68;100.00
29839;BME280;18669;53.356;-1.464;2023-04-08T06:21:51;101580.34;;;3.72;100.00
29839;BME280;18669;53.356;-1.464;2023-04-08T06:24:42;101574.97;;;3.65;100.00
29839;BME280;18669;53.356;-1.464;2023-04-08T06:27:27;101574.22;;;3.70;100.00
29839;BME280;18669;53.356;-1.464;2023-04-08T06:30:11;101590.22;;;3.87;100.00
29839;BME280;18669;53.356;-1.464;2023-04-08T06:32:56;101580.09;;;4.00;100.00
29839;BME280;18669;53.356;-1.464;2023-04-08T06:35:41;101591.88;;;4.25;100.00
29839;BME280;18669;53.356;-1.464;2023-04-08T06:38:26;101585.34;;;4.44;100.00
29839;BME280;18669;53.356;-1.464;2023-04-08T06:41:11;101601.47;;;4.69;100.00
29839;BME280;18669;53.356;-1.464;2023-04-08T06:43:56;101600.13;;;4.90;100.00
29839;BME280;18669;53.356;-1.464;2023-04-08T06:46:41;101594.28;;;5.05;100.00
29839;BME280;18669;53.356;-1.464;2023-04-08T06:49:26;101599.84;;;5.23;100.00
29839;BME280;18669;53.356;-1.464;2023-04-08T06:52:10;101599.28;;;5.43;100.00
29839;BME280;18669;53.356;-1.464;2023-04-08T06:54:56;101598.75;;;5.64;100.00
29839;BME280;18669;53.356;-1.464;2023-04-08T06:57:40;101609.56;;;5.88;100.00
29839;BME280;18669;53.356;-1.464;2023-04-08T07:00:25;101602.00;;;6.06;100.00
29839;BME280;18669;53.356;-1.464;2023-04-08T07:03:10;101606.63;;;6.27;100.00
29839;BME280;18669;53.356;-1.464;2023-04-08T07:05:55;101599.09;;;6.49;100.00
29839;BME280;18669;53.356;-1.464;2023-04-08T07:08:40;101597.63;;;6.76;100.00
29839;BME280;18669;53.356;-1.464;2023-04-08T07:11:25;101606.59;;;6.98;100.00
29839;BME280;18669;53.356;-1.464;2023-04-08T07:14:11;101599.75;;;7.16;100.00
29839;BME280;18669;53.356;-1.464;2023-04-08T07:16:55;101610.34;;;7.28;100.00
29839;BME280;18669;53.356;-1.464;2023-04-08T07:19:40;101612.22;;;7.43;100.00
29839;BME280;18669;53.356;-1.464;2023-04-08T07:22:25;101605.31;;;7.53;100.00
29839;BME280;18669;53.356;-1.464;2023-04-08T07:25:10;101608.97;;;7.74;100.00
29839;BME280;18669;53.356;-1.464;2023-04-08T07:27:57;101616.09;;;8.01;100.00
29839;BME280;18669;53.356;-1.464;2023-04-08T07:30:42;101610.06;;;8.16;100.00
29839;BME280;18669;53.356;-1.464;2023-04-08T07:33:27;101611.03;;;8.26;100.00
29839;BME280;18669;53.356;-1.464;2023-04-08T07:36:13;101616.34;;;8.43;100.00
29839;BME280;18669;53.356;-1.464;2023-04-08T07:38:58;101620.78;;;8.60;100.00
29839;BME280;18669;53.356;-1.464;2023-04-08T07:41:43;101622.59;;;8.73;100.00
29839;BME280;18669;53.356;-1.464;2023-04-08T07:44:28;101618.25;;;8.86;100.00
29839;BME280;18669;53.356;-1.464;2023-04-08T07:47:13;101619.16;;;9.02;100.00
29839;BME280;18669;53.356;-1.464;2023-04-08T07:49:58;101629.66;;;9.13;100.00
29839;BME280;18669;53.356;-1.464;2023-04-08T07:52:43;101625.34;;;9.34;100.00
29839;BME280;18669;53.356;-1.464;2023-04-08T07:55:32;101622.69;;;9.65;100.00
29839;BME280;18669;53.356;-1.464;2023-04-08T07:58:17;101631.47;;;9.53;100.00
29839;BME280;18669;53.356;-1.464;2023-04-08T08:01:02;101630.56;;;9.69;100.00
29839;BME280;18669;53.356;-1.464;2023-04-08T08:03:50;101626.16;;;9.93;100.00
29839;BME280;18669;53.356;-1.464;2023-04-08T08:06:35;101626.16;;;9.98;100.00
29839;BME280;18669;53.356;-1.464;2023-04-08T08:09:20;101626.16;;;9.96;100.00
29839;BME280;18669;53.356;-1.464;2023-04-08T08:12:05;101627.88;;;10.08;100.00
29839;BME280;18669;53.356;-1.464;2023-04-08T08:14:50;101633.06;;;10.32;100.00
29839;BME280;18669;53.356;-1.464;2023-04-08T08:17:38;101631.28;;;10.49;100.00
29839;BME280;18669;53.356;-1.464;2023-04-08T08:20:23;101628.63;;;10.55;100.00
29839;BME280;18669;53.356;-1.464;2023-04-08T08:23:08;101635.69;;;10.44;100.00
29839;BME280;18669;53.356;-1.464;2023-04-08T08:26:04;101635.53;;;10.81;100.00
29839;BME280;18669;53.356;-1.464;2023-04-08T08:28:50;101633.63;;;11.02;100.00
29839;BME280;18669;53.356;-1.464;2023-04-08T08:31:35;101635.28;;;11.22;100.00
29839;BME280;18669;53.356;-1.464;2023-04-08T08:34:20;101628.88;;;11.52;100.00
29839;BME280;18669;53.356;-1.464;2023-04-08T08:37:05;101629.34;;;11.98;100.00
29839;BME280;18669;53.356;-1.464;2023-04-08T08:39:50;101622.94;;;12.25;100.00
29839;BME280;18669;53.356;-1.464;2023-04-08T08:42:35;101625.41;;;12.37;100.00
29839;BME280;18669;53.356;-1.464;2023-04-08T08:45:20;101633.16;;;12.53;100.00
29839;BME280;18669;53.356;-1.464;2023-04-08T08:48:05;101631.31;;;12.57;100.00
29839;BME280;18669;53.356;-1.464;2023-04-08T08:50:50;101633.44;;;12.27;100.00
29839;BME280;18669;53.356;-1.464;2023-04-08T08:53:35;101642.16;;;12.35;100.00
29839;BME280;18669;53.356;-1.464;2023-04-08T08:56:20;101639.47;;;12.41;99.66
29839;BME280;18669;53.356;-1.464;2023-04-08T08:59:05;101635.94;;;13.06;100.00
29839;BME280;18669;53.356;-1.464;2023-04-08T09:01:50;101631.22;;;13.82;90.74
29839;BME280;18669;53.356;-1.464;2023-04-08T09:04:35;101630.84;;;14.47;85.34
29839;BME280;18669;53.356;-1.464;2023-04-08T09:07:23;101629.94;;;16.00;73.45
29839;BME280;18669;53.356;-1.464;2023-04-08T09:10:09;101630.94;;;16.59;63.43
29839;BME280;18669;53.356;-1.464;2023-04-08T09:12:55;101625.63;;;17.71;61.57
29839;BME280;18669;53.356;-1.464;2023-04-08T09:16:02;101620.00;;;19.01;56.83
29839;BME280;18669;53.356;-1.464;2023-04-08T09:18:48;101626.00;;;19.92;51.21
29839;BME280;18669;53.356;-1.464;2023-04-08T09:21:33;101632.38;;;19.88;49.19
29839;BME280;18669;53.356;-1.464;2023-04-08T09:24:29;101622.06;;;20.40;47.82
29839;BME280;18669;53.356;-1.464;2023-04-08T09:27:14;101625.50;;;20.23;47.33
29839;BME280;18669;53.356;-1.464;2023-04-08T09:30:34;101631.91;;;20.78;46.48
29839;BME280;18669;53.356;-1.464;2023-04-08T09:33:29;101622.34;;;20.92;44.15
29839;BME280;18669;53.356;-1.464;2023-04-08T09:36:15;101627.69;;;20.53;45.05
29839;BME280;18669;53.356;-1.464;2023-04-08T09:39:00;101616.38;;;21.04;44.20
29839;BME280;18669;53.356;-1.464;2023-04-08T09:41:49;101632.31;;;21.79;42.41
29839;BME280;18669;53.356;-1.464;2023-04-08T09:44:36;101616.84;;;22.35;41.46
29839;BME280;18669;53.356;-1.464;2023-04-08T09:47:25;101624.81;;;22.03;40.93
29839;BME280;18669;53.356;-1.464;2023-04-08T09:50:12;101625.34;;;22.10;40.18
29839;BME280;18669;53.356;-1.464;2023-04-08T09:53:01;101624.91;;;21.84;40.42
29839;BME280;18669;53.356;-1.464;2023-04-08T09:55:54;101626.91;;;22.80;40.81
29839;BME280;18669;53.356;-1.464;2023-04-08T09:59:08;101620.84;;;23.55;39.38
29839;BME280;18669;53.356;-1.464;2023-04-08T10:01:58;101620.16;;;24.40;37.24
29839;BME280;18669;53.356;-1.464;2023-04-08T10:04:47;101612.72;;;24.02;37.46
29839;BME280;18669;53.356;-1.464;2023-04-08T10:07:34;101619.41;;;24.09;36.73
29839;BME280;18669;53.356;-1.464;2023-04-08T10:10:19;101617.06;;;22.97;37.27
29839;BME280;18669;53.356;-1.464;2023-04-08T10:13:06;101616.56;;;22.40;39.08
29839;BME280;18669;53.356;-1.464;2023-04-08T10:16:17;101611.94;;;21.93;40.32
29839;BME280;18669;53.356;-1.464;2023-04-08T10:28:46;101608.25;;;21.95;40.64
29839;BME280;18669;53.356;-1.464;2023-04-08T10:31:06;101612.50;;;21.46;42.02
29839;BME280;18669;53.356;-1.464;2023-04-08T10:34:22;101603.28;;;21.35;42.13
29839;BME280;18669;53.356;-1.464;2023-04-08T10:37:09;101596.53;;;22.14;41.04
29839;BME280;18669;53.356;-1.464;2023-04-08T10:39:54;101594.50;;;23.76;39.20
29839;BME280;18669;53.356;-1.464;2023-04-08T10:42:39;101601.28;;;23.22;37.18
29839;BME280;18669;53.356;-1.464;2023-04-08T10:45:24;101601.97;;;23.10;36.35
29839;BME280;18669;53.356;-1.464;2023-04-08T10:48:23;101584.72;;;23.14;36.15
29839;BME280;18669;53.356;-1.464;2023-04-08T10:51:08;101599.16;;;22.15;37.73
29839;BME280;18669;53.356;-1.464;2023-04-08T10:53:53;101595.06;;;22.08;37.86
29839;BME280;18669;53.356;-1.464;2023-04-08T10:56:48;101611.91;;;21.05;39.53
29839;BME280;18669;53.356;-1.464;2023-04-08T10:59:33;101603.63;;;20.72;39.82
29839;BME280;18669;53.356;-1.464;2023-04-08T11:02:18;101604.41;;;19.96;40.96
29839;BME280;18669;53.356;-1.464;2023-04-08T11:05:03;101597.47;;;20.70;41.32
29839;BME280;18669;53.356;-1.464;2023-04-08T11:07:48;101594.06;;;20.86;42.65
29839;BME280;18669;53.356;-1.464;2023-04-08T11:10:37;101598.13;;;20.37;42.46
29839;BME280;18669;53.356;-1.464;2023-04-08T11:13:22;101588.34;;;19.14;45.17
29839;BME280;18669;53.356;-1.464;2023-04-08T11:16:10;101582.53;;;18.80;46.03
29839;BME280;18669;53.356;-1.464;2023-04-08T11:18:56;101590.13;;;19.77;44.71
29839;BME280;18669;53.356;-1.464;2023-04-08T11:21:41;101584.66;;;19.59;43.78
29839;BME280;18669;53.356;-1.464;2023-04-08T11:24:27;101584.78;;;19.77;44.23
29839;BME280;18669;53.356;-1.464;2023-04-08T11:27:12;101580.25;;;20.19;43.46
29839;BME280;18669;53.356;-1.464;2023-04-08T11:29:59;101584.78;;;19.97;43.59
29839;BME280;18669;53.356;-1.464;2023-04-08T11:32:45;101574.22;;;20.15;43.65
29839;BME280;18669;53.356;-1.464;2023-04-08T11:35:30;101575.75;;;20.78;43.07
29839;BME280;18669;53.356;-1.464;2023-04-08T11:38:14;101572.81;;;21.55;41.63
29839;BME280;18669;53.356;-1.464;2023-04-08T11:40:59;101570.69;;;22.13;40.54
29839;BME280;18669;53.356;-1.464;2023-04-08T11:43:54;101569.72;;;22.63;39.82
29839;BME280;18669;53.356;-1.464;2023-04-08T11:46:40;101559.69;;;22.67;38.68
29839;BME280;18669;53.356;-1.464;2023-04-08T11:49:25;101573.28;;;21.81;39.49
29839;BME280;18669;53.356;-1.464;2023-04-08T11:52:10;101578.91;;;21.76;39.08
29839;BME280;18669;53.356;-1.464;2023-04-08T11:54:55;101567.13;;;22.62;39.09
29839;BME280;18669;53.356;-1.464;2023-04-08T11:57:40;101569.28;;;23.79;35.50
29839;BME280;18669;53.356;-1.464;2023-04-08T12:00:26;101559.19;;;25.23;33.42
29839;BME280;18669;53.356;-1.464;2023-04-08T12:03:11;101558.22;;;26.40;31.55
29839;BME280;18669;53.356;-1.464;2023-04-08T12:05:57;101548.59;;;28.03;29.90
29839;BME280;18669;53.356;-1.464;2023-04-08T12:08:42;101554.59;;;29.17;26.88
29839;BME280;18669;53.356;-1.464;2023-04-08T12:11:28;101545.53;;;27.96;27.54
29839;BME280;18669;53.356;-1.464;2023-04-08T12:14:13;101555.22;;;28.44;27.16
29839;BME280;18669;53.356;-1.464;2023-04-08T12:16:58;101546.78;;;28.70;27.20
29839;BME280;18669;53.356;-1.464;2023-04-08T12:19:43;101550.44;;;27.68;28.68
29839;BME280;18669;53.356;-1.464;2023-04-08T12:22:28;101537.31;;;27.87;28.04
29839;BME280;18669;53.356;-1.464;2023-04-08T12:25:13;101533.59;;;28.33;26.83
29839;BME280;18669;53.356;-1.464;2023-04-08T12:27:58;101538.28;;;27.74;26.82
29839;BME280;18669;53.356;-1.464;2023-04-08T12:30:43;101538.91;;;26.46;27.29
29839;BME280;18669;53.356;-1.464;2023-04-08T12:33:28;101532.09;;;25.52;27.75
29839;BME280;18669;53.356;-1.464;2023-04-08T12:36:13;101546.47;;;25.65;28.40
29839;BME280;18669;53.356;-1.464;2023-04-08T12:38:58;101543.59;;;25.41;29.15
29839;BME280;18669;53.356;-1.464;2023-04-08T12:41:43;101536.53;;;23.87;31.95
29839;BME280;18669;53.356;-1.464;2023-04-08T12:44:28;101536.19;;;23.03;32.08
29839;BME280;18669;53.356;-1.464;2023-04-08T12:47:12;101540.88;;;23.89;31.36
29839;BME280;18669;53.356;-1.464;2023-04-08T12:49:57;101530.63;;;24.52;30.62
29839;BME280;18669;53.356;-1.464;2023-04-08T12:52:42;101539.44;;;23.69;29.98
29839;BME280;18669;53.356;-1.464;2023-04-08T12:55:27;101530.53;;;22.45;32.44
29839;BME280;18669;53.356;-1.464;2023-04-08T12:58:12;101535.81;;;21.97;32.92
29839;BME280;18669;53.356;-1.464;2023-04-08T13:00:57;101544.41;;;21.70;34.22
29839;BME280;18669;53.356;-1.464;2023-04-08T13:03:42;101542.06;;;21.97;33.18
29839;BME280;18669;53.356;-1.464;2023-04-08T13:06:27;101535.50;;;22.03;33.43
29839;BME280;18669;53.356;-1.464;2023-04-08T13:09:12;101541.25;;;21.61;33.98
29839;BME280;18669;53.356;-1.464;2023-04-08T13:11:58;101534.97;;;21.27;33.40
29839;BME280;18669;53.356;-1.464;2023-04-08T13:14:43;101533.94;;;20.76;33.30
29839;BME280;18669;53.356;-1.464;2023-04-08T13:17:28;101537.13;;;20.84;34.41
29839;BME280;18669;53.356;-1.464;2023-04-08T13:20:13;101535.22;;;21.23;35.28
29839;BME280;18669;53.356;-1.464;2023-04-08T13:22:58;101523.16;;;21.14;34.93
29839;BME280;18669;53.356;-1.464;2023-04-08T13:25:44;101508.97;;;22.14;33.52
29839;BME280;18669;53.356;-1.464;2023-04-08T13:28:29;101513.56;;;22.76;31.87
29839;BME280;18669;53.356;-1.464;2023-04-08T13:31:14;101513.34;;;22.95;31.48
29839;BME280;18669;53.356;-1.464;2023-04-08T13:33:59;101514.41;;;23.23;30.20
29839;BME280;18669;53.356;-1.464;2023-04-08T13:36:44;101510.06;;;22.90;31.50
29839;BME280;18669;53.356;-1.464;2023-04-08T13:39:29;101507.53;;;22.73;31.66
29839;BME280;18669;53.356;-1.464;2023-04-08T13:42:14;101507.28;;;22.45;31.93
29839;BME280;18669;53.356;-1.464;2023-04-08T13:44:59;101503.13;;;22.56;32.67
29839;BME280;18669;53.356;-1.464;2023-04-08T13:47:45;101503.00;;;23.34;30.91
29839;BME280;18669;53.356;-1.464;2023-04-08T13:50:30;101498.31;;;24.25;29.32
29839;BME280;18669;53.356;-1.464;2023-04-08T13:53:14;101489.56;;;24.91;28.71
29839;BME280;18669;53.356;-1.464;2023-04-08T13:55:59;101485.88;;;25.58;28.41
29839;BME280;18669;53.356;-1.464;2023-04-08T13:58:44;101475.34;;;26.42;27.22
29839;BME280;18669;53.356;-1.464;2023-04-08T14:01:30;101482.47;;;26.68;26.06
29839;BME280;18669;53.356;-1.464;2023-04-08T14:04:15;101483.34;;;26.06;26.72
29839;BME280;18669;53.356;-1.464;2023-04-08T14:07:00;101484.88;;;25.85;27.10
29839;BME280;18669;53.356;-1.464;2023-04-08T14:10:11;101490.44;;;26.08;26.27
29839;BME280;18669;53.356;-1.464;2023-04-08T14:12:58;101484.19;;;25.03;26.94
29839;BME280;18669;53.356;-1.464;2023-04-08T14:15:43;101484.25;;;23.78;28.19
29839;BME280;18669;53.356;-1.464;2023-04-08T14:18:27;101485.00;;;24.23;28.46
29839;BME280;18669;53.356;-1.464;2023-04-08T14:21:12;101475.47;;;24.87;28.21
29839;BME280;18669;53.356;-1.464;2023-04-08T14:23:58;101474.72;;;24.85;27.76
29839;BME280;18669;53.356;-1.464;2023-04-08T14:26:43;101473.78;;;25.64;27.48
29839;BME280;18669;53.356;-1.464;2023-04-08T14:29:28;101460.94;;;26.55;25.83
29839;BME280;18669;53.356;-1.464;2023-04-08T14:32:13;101478.22;;;27.23;25.46
29839;BME280;18669;53.356;-1.464;2023-04-08T14:34:58;101473.03;;;27.67;26.09
29839;BME280;18669;53.356;-1.464;2023-04-08T14:37:43;101462.41;;;29.29;23.73